sensor_id;sensor_type;location;lat;lon;timestamp;P1;durP1;ratioP1;P2;durP2;ratioP2
15915;SDS011;8057;47.830;-3.870;2023-10-09T00:02:15;8.17;;;7.27;;
15915;SDS011;8057;47.830;-3.870;2023-10-09T00:06:28;9.33;;;7.07;;
15915;SDS011;8057;47.830;-3.870;2023-10-09T00:10:45;8.40;;;6.53;;
15915;SDS011;8057;47.830;-3.870;2023-10-09T00:15:03;7.73;;;6.43;;
15915;SDS011;8057;47.830;-3.870;2023-10-09T00:19:20;8.50;;;7.00;;
15915;SDS011;8057;47.830;-3.870;2023-10-09T00:23:41;7.67;;;6.47;;
15915;SDS011;8057;47.830;-3.870;2023-10-09T00:28:01;7.27;;;5.90;;
15915;SDS011;8057;47.830;-3.870;2023-10-09T00:32:20;9.17;;;6.40;;
15915;SDS011;8057;47.830;-3.870;2023-10-09T00:36:34;7.50;;;5.93;;
15915;SDS011;8057;47.830;-3.870;2023-10-09T00:41:01;6.47;;;5.73;;
15915;SDS011;8057;47.830;-3.870;2023-10-09T00:45:21;7.20;;;5.63;;
15915;SDS011;8057;47.830;-3.870;2023-10-09T00:49:40;7.63;;;6.20;;
15915;SDS011;8057;47.830;-3.870;2023-10-09T00:53:52;8.93;;;5.87;;
15915;SDS011;8057;47.830;-3.870;2023-10-09T00:58:07;6.27;;;5.67;;
15915;SDS011;8057;47.830;-3.870;2023-10-09T01:02:24;7.40;;;5.33;;
15915;SDS011;8057;47.830;-3.870;2023-10-09T01:06:44;5.77;;;5.17;;
15915;SDS011;8057;47.830;-3.870;2023-10-09T01:11:16;6.53;;;5.67;;
15915;SDS011;8057;47.830;-3.870;2023-10-09T01:15:34;6.70;;;6.00;;
15915;SDS011;8057;47.830;-3.870;2023-10-09T01:19:51;6.40;;;5.63;;
15915;SDS011;8057;47.830;-3.870;2023-10-09T01:24:06;7.17;;;5.50;;
15915;SDS011;8057;47.830;-3.870;2023-10-09T01:28:21;6.37;;;5.47;;
15915;SDS011;8057;47.830;-3.870;2023-10-09T01:32:32;5.67;;;4.77;;
15915;SDS011;8057;47.830;-3.870;2023-10-09T01:36:44;7.43;;;5.50;;
15915;SDS011;8057;47.830;-3.870;2023-10-09T01:40:59;7.87;;;6.33;;
15915;SDS011;8057;47.830;-3.870;2023-10-09T01:45:15;7.37;;;6.07;;
15915;SDS011;8057;47.830;-3.870;2023-10-09T01:49:35;6.80;;;6.00;;
15915;SDS011;8057;47.830;-3.870;2023-10-09T01:53:48;7.53;;;5.83;;
15915;SDS011;8057;47.830;-3.870;2023-10-09T01:58:05;6.77;;;5.33;;
15915;SDS011;8057;47.830;-3.870;2023-10-09T02:02:27;5.50;;;4.90;;
15915;SDS011;8057;47.830;-3.870;2023-10-09T02:06:46;6.53;;;4.70;;
15915;SDS011;8057;47.830;-3.870;2023-10-09T02:11:03;5.10;;;4.40;;
15915;SDS011;8057;47.830;-3.870;2023-10-09T02:15:15;5.87;;;4.93;;
15915;SDS011;8057;47.830;-3.870;2023-10-09T02:19:47;4.93;;;4.43;;
15915;SDS011;8057;47.830;-3.870;2023-10-09T02:24:02;7.07;;;4.60;;
15915;SDS011;8057;47.830;-3.870;2023-10-09T02:28:23;5.43;;;4.30;;
15915;SDS011;8057;47.830;-3.870;2023-10-09T02:32:48;5.70;;;4.87;;
15915;SDS011;8057;47.830;-3.870;2023-10-09T02:37:16;4.47;;;3.63;;
15915;SDS011;8057;47.830;-3.870;2023-10-09T02:41:37;4.63;;;4.20;;
15915;SDS011;8057;47.830;-3.870;2023-10-09T02:46:08;6.87;;;4.07;;
15915;SDS011;8057;47.830;-3.870;2023-10-09T02:50:39;4.57;;;3.87;;
15915;SDS011;8057;47.830;-3.870;2023-10-09T02:54:56;4.70;;;3.27;;
15915;SDS011;8057;47.830;-3.870;2023-10-09T02:59:16;3.97;;;3.60;;
15915;SDS011;8057;47.830;-3.870;2023-10-09T03:03:30;3.70;;;3.30;;
15915;SDS011;8057;47.830;-3.870;2023-10-09T03:07:48;4.50;;;3.57;;
15915;SDS011;8057;47.830;-3.870;2023-10-09T03:12:02;4.07;;;3.17;;
15915;SDS011;8057;47.830;-3.870;2023-10-09T03:16:17;4.87;;;4.03;;
15915;SDS011;8057;47.830;-3.870;2023-10-09T03:20:29;5.47;;;4.23;;
15915;SDS011;8057;47.830;-3.870;2023-10-09T03:24:44;4.70;;;3.57;;
15915;SDS011;8057;47.830;-3.870;2023-10-09T03:28:59;4.40;;;3.80;;
15915;SDS011;8057;47.830;-3.870;2023-10-09T03:33:32;5.00;;;4.10;;
15915;SDS011;8057;47.830;-3.870;2023-10-09T03:37:44;4.73;;;4.20;;
15915;SDS011;8057;47.830;-3.870;2023-10-09T03:41:56;4.90;;;3.63;;
15915;SDS011;8057;47.830;-3.870;2023-10-09T03:46:07;4.23;;;3.83;;
15915;SDS011;8057;47.830;-3.870;2023-10-09T03:50:21;4.83;;;4.33;;
15915;SDS011;8057;47.830;-3.870;2023-10-09T03:54:33;6.03;;;4.73;;
15915;SDS011;8057;47.830;-3.870;2023-10-09T03:58:47;4.00;;;3.60;;
15915;SDS011;8057;47.830;-3.870;2023-10-09T04:02:57;5.33;;;4.47;;
15915;SDS011;8057;47.830;-3.870;2023-10-09T04:07:07;4.60;;;4.20;;
15915;SDS011;8057;47.830;-3.870;2023-10-09T04:11:16;4.30;;;3.90;;
15915;SDS011;8057;47.830;-3.870;2023-10-09T04:15:31;5.23;;;3.97;;
15915;SDS011;8057;47.830;-3.870;2023-10-09T04:19:42;5.23;;;4.73;;
15915;SDS011;8057;47.830;-3.870;2023-10-09T04:24:16;4.60;;;4.10;;
15915;SDS011;8057;47.830;-3.870;2023-10-09T04:28:30;5.53;;;4.30;;
15915;SDS011;8057;47.830;-3.870;2023-10-09T04:32:41;4.90;;;4.40;;
15915;SDS011;8057;47.830;-3.870;2023-10-09T04:36:52;4.30;;;3.90;;
15915;SDS011;8057;47.830;-3.870;2023-10-09T04:41:05;4.63;;;4.23;;
15915;SDS011;8057;47.830;-3.870;2023-10-09T04:45:16;4.73;;;4.30;;
15915;SDS011;8057;47.830;-3.870;2023-10-09T04:49:44;5.97;;;4.43;;
15915;SDS011;8057;47.830;-3.870;2023-10-09T04:54:08;4.57;;;4.00;;
15915;SDS011;8057;47.830;-3.870;2023-10-09T04:58:21;4.70;;;3.77;;
15915;SDS011;8057;47.830;-3.870;2023-10-09T05:02:33;4.57;;;4.10;;
15915;SDS011;8057;47.830;-3.870;2023-10-09T05:06:46;5.83;;;4.63;;
15915;SDS011;8057;47.830;-3.870;2023-10-09T05:11:03;4.60;;;3.83;;
15915;SDS011;8057;47.830;-3.870;2023-10-09T05:15:26;4.87;;;4.37;;
15915;SDS011;8057;47.830;-3.870;2023-10-09T05:19:36;5.77;;;4.63;;
15915;SDS011;8057;47.830;-3.870;2023-10-09T05:24:24;5.80;;;4.10;;
15915;SDS011;8057;47.830;-3.870;2023-10-09T05:28:34;5.50;;;3.83;;
15915;SDS011;8057;47.830;-3.870;2023-10-09T05:32:59;5.07;;;4.30;;
15915;SDS011;8057;47.830;-3.870;2023-10-09T05:37:33;5.23;;;4.57;;
15915;SDS011;8057;47.830;-3.870;2023-10-09T05:41:52;6.20;;;5.10;;
15915;SDS011;8057;47.830;-3.870;2023-10-09T05:46:07;4.90;;;4.43;;
15915;SDS011;8057;47.830;-3.870;2023-10-09T05:50:16;5.80;;;4.93;;
15915;SDS011;8057;47.830;-3.870;2023-10-09T05:54:41;6.00;;;5.40;;
15915;SDS011;8057;47.830;-3.870;2023-10-09T05:59:18;6.63;;;4.83;;
15915;SDS011;8057;47.830;-3.870;2023-10-09T06:03:46;6.20;;;5.33;;
15915;SDS011;8057;47.830;-3.870;2023-10-09T06:08:02;6.07;;;5.47;;
15915;SDS011;8057;47.830;-3.870;2023-10-09T06:12:13;7.13;;;5.73;;
15915;SDS011;8057;47.830;-3.870;2023-10-09T06:16:42;6.47;;;5.73;;
15915;SDS011;8057;47.830;-3.870;2023-10-09T06:21:06;7.10;;;5.73;;
15915;SDS011;8057;47.830;-3.870;2023-10-09T06:25:39;5.93;;;5.00;;
15915;SDS011;8057;47.830;-3.870;2023-10-09T06:29:59;6.03;;;5.43;;
15915;SDS011;8057;47.830;-3.870;2023-10-09T06:34:33;11.07;;;6.17;;
15915;SDS011;8057;47.830;-3.870;2023-10-09T06:38:51;8.33;;;6.57;;
15915;SDS011;8057;47.830;-3.870;2023-10-09T06:43:22;8.63;;;7.33;;
15915;SDS011;8057;47.830;-3.870;2023-10-09T06:47:38;9.73;;;7.23;;
15915;SDS011;8057;47.830;-3.870;2023-10-09T06:51:51;10.83;;;7.87;;
15915;SDS011;8057;47.830;-3.870;2023-10-09T06:56:02;8.97;;;6.77;;
15915;SDS011;8057;47.830;-3.870;2023-10-09T07:00:13;11.87;;;7.53;;
15915;SDS011;8057;47.830;-3.870;2023-10-09T07:04:46;9.50;;;7.43;;
15915;SDS011;8057;47.830;-3.870;2023-10-09T07:08:56;9.60;;;7.20;;
15915;SDS011;8057;47.830;-3.870;2023-10-09T07:13:22;8.70;;;7.27;;
15915;SDS011;8057;47.830;-3.870;2023-10-09T07:17:32;11.70;;;7.97;;
15915;SDS011;8057;47.830;-3.870;2023-10-09T07:21:52;11.30;;;8.60;;
15915;SDS011;8057;47.830;-3.870;2023-10-09T07:26:04;10.20;;;7.47;;
15915;SDS011;8057;47.830;-3.870;2023-10-09T07:30:30;8.53;;;6.30;;
15915;SDS011;8057;47.830;-3.870;2023-10-09T07:34:46;5.17;;;4.63;;
15915;SDS011;8057;47.830;-3.870;2023-10-09T07:39:04;5.27;;;4.37;;
15915;SDS011;8057;47.830;-3.870;2023-10-09T07:43:26;11.13;;;5.57;;
15915;SDS011;8057;47.830;-3.870;2023-10-09T07:47:42;5.33;;;4.30;;
15915;SDS011;8057;47.830;-3.870;2023-10-09T07:52:08;6.57;;;4.67;;
15915;SDS011;8057;47.830;-3.870;2023-10-09T07:56:17;6.53;;;4.63;;
15915;SDS011;8057;47.830;-3.870;2023-10-09T08:00:29;6.90;;;4.80;;
15915;SDS011;8057;47.830;-3.870;2023-10-09T08:05:06;5.80;;;4.80;;
15915;SDS011;8057;47.830;-3.870;2023-10-09T08:09:28;5.80;;;3.93;;
15915;SDS011;8057;47.830;-3.870;2023-10-09T08:13:54;4.93;;;3.90;;
15915;SDS011;8057;47.830;-3.870;2023-10-09T08:18:09;5.77;;;3.90;;
15915;SDS011;8057;47.830;-3.870;2023-10-09T08:22:26;4.40;;;3.47;;
15915;SDS011;8057;47.830;-3.870;2023-10-09T08:26:59;4.00;;;3.40;;
15915;SDS011;8057;47.830;-3.870;2023-10-09T08:31:22;4.03;;;3.37;;
15915;SDS011;8057;47.830;-3.870;2023-10-09T08:35:54;4.67;;;3.63;;
15915;SDS011;8057;47.830;-3.870;2023-10-09T08:40:09;3.97;;;3.20;;
15915;SDS011;8057;47.830;-3.870;2023-10-09T08:44:25;4.33;;;3.20;;
15915;SDS011;8057;47.830;-3.870;2023-10-09T08:48:39;4.17;;;3.20;;
15915;SDS011;8057;47.830;-3.870;2023-10-09T08:52:50;3.73;;;3.10;;
15915;SDS011;8057;47.830;-3.870;2023-10-09T08:56:59;3.70;;;3.30;;
15915;SDS011;8057;47.830;-3.870;2023-10-09T09:01:08;3.30;;;2.80;;
15915;SDS011;8057;47.830;-3.870;2023-10-09T09:05:18;4.90;;;3.63;;
15915;SDS011;8057;47.830;-3.870;2023-10-09T09:09:29;4.60;;;3.90;;
15915;SDS011;8057;47.830;-3.870;2023-10-09T09:13:40;5.00;;;4.00;;
15915;SDS011;8057;47.830;-3.870;2023-10-09T09:18:03;6.50;;;4.00;;
15915;SDS011;8057;47.830;-3.870;2023-10-09T09:22:18;3.80;;;3.43;;
15915;SDS011;8057;47.830;-3.870;2023-10-09T09:26:36;5.00;;;3.57;;
15915;SDS011;8057;47.830;-3.870;2023-10-09T09:30:51;7.87;;;4.50;;
15915;SDS011;8057;47.830;-3.870;2023-10-09T09:35:02;5.03;;;4.33;;
15915;SDS011;8057;47.830;-3.870;2023-10-09T09:39:12;7.67;;;4.57;;
15915;SDS011;8057;47.830;-3.870;2023-10-09T09:43:27;7.50;;;4.60;;
15915;SDS011;8057;47.830;-3.870;2023-10-09T09:47:42;5.10;;;4.00;;
15915;SDS011;8057;47.830;-3.870;2023-10-09T09:52:00;5.83;;;4.17;;
15915;SDS011;8057;47.830;-3.870;2023-10-09T09:56:16;5.67;;;3.70;;
15915;SDS011;8057;47.830;-3.870;2023-10-09T10:00:30;4.47;;;3.60;;
15915;SDS011;8057;47.830;-3.870;2023-10-09T10:04:51;4.80;;;3.87;;
15915;SDS011;8057;47.830;-3.870;2023-10-09T10:09:04;4.33;;;3.47;;
15915;SDS011;8057;47.830;-3.870;2023-10-09T10:13:15;4.63;;;3.70;;
15915;SDS011;8057;47.830;-3.870;2023-10-09T10:17:32;4.83;;;3.73;;
15915;SDS011;8057;47.830;-3.870;2023-10-09T10:22:23;4.17;;;3.57;;
15915;SDS011;8057;47.830;-3.870;2023-10-09T10:26:34;3.63;;;2.93;;
15915;SDS011;8057;47.830;-3.870;2023-10-09T10:30:45;4.07;;;3.53;;
15915;SDS011;8057;47.830;-3.870;2023-10-09T10:34:59;4.43;;;3.73;;
15915;SDS011;8057;47.830;-3.870;2023-10-09T10:39:13;6.03;;;4.50;;
15915;SDS011;8057;47.830;-3.870;2023-10-09T10:43:28;5.47;;;3.77;;
15915;SDS011;8057;47.830;-3.870;2023-10-09T10:47:53;6.50;;;4.13;;
15915;SDS011;8057;47.830;-3.870;2023-10-09T10:52:07;4.83;;;3.73;;
15915;SDS011;8057;47.830;-3.870;2023-10-09T10:56:37;7.20;;;3.93;;
15915;SDS011;8057;47.830;-3.870;2023-10-09T11:00:51;5.07;;;3.77;;
15915;SDS011;8057;47.830;-3.870;2023-10-09T11:05:29;5.37;;;3.90;;
15915;SDS011;8057;47.830;-3.870;2023-10-09T11:09:47;4.83;;;3.33;;
15915;SDS011;8057;47.830;-3.870;2023-10-09T11:14:15;3.67;;;3.27;;
15915;SDS011;8057;47.830;-3.870;2023-10-09T11:18:30;5.53;;;3.43;;
15915;SDS011;8057;47.830;-3.870;2023-10-09T11:22:53;3.90;;;3.30;;
15915;SDS011;8057;47.830;-3.870;2023-10-09T11:27:23;4.43;;;3.77;;
15915;SDS011;8057;47.830;-3.870;2023-10-09T11:31:40;5.03;;;3.37;;
15915;SDS011;8057;47.830;-3.870;2023-10-09T11:35:55;4.07;;;3.57;;
15915;SDS011;8057;47.830;-3.870;2023-10-09T11:40:05;3.40;;;2.70;;
15915;SDS011;8057;47.830;-3.870;2023-10-09T11:44:38;2.73;;;2.40;;
15915;SDS011;8057;47.830;-3.870;2023-10-09T11:49:01;5.93;;;3.00;;
15915;SDS011;8057;47.830;-3.870;2023-10-09T11:53:39;4.30;;;2.87;;
15915;SDS011;8057;47.830;-3.870;2023-10-09T11:57:50;3.67;;;3.20;;
15915;SDS011;8057;47.830;-3.870;2023-10-09T12:02:01;4.83;;;3.20;;
15915;SDS011;8057;47.830;-3.870;2023-10-09T12:06:11;4.17;;;3.37;;
15915;SDS011;8057;47.830;-3.870;2023-10-09T12:10:21;5.37;;;3.50;;
15915;SDS011;8057;47.830;-3.870;2023-10-09T12:14:33;6.30;;;3.23;;
15915;SDS011;8057;47.830;-3.870;2023-10-09T12:18:45;4.17;;;3.40;;
15915;SDS011;8057;47.830;-3.870;2023-10-09T12:23:00;4.10;;;3.00;;
15915;SDS011;8057;47.830;-3.870;2023-10-09T12:27:11;6.23;;;3.63;;
15915;SDS011;8057;47.830;-3.870;2023-10-09T12:31:20;3.97;;;3.67;;
15915;SDS011;8057;47.830;-3.870;2023-10-09T12:35:35;4.20;;;3.23;;
15915;SDS011;8057;47.830;-3.870;2023-10-09T12:39:45;3.67;;;3.30;;
15915;SDS011;8057;47.830;-3.870;2023-10-09T12:43:55;4.03;;;3.30;;
15915;SDS011;8057;47.830;-3.870;2023-10-09T12:48:05;4.40;;;3.33;;
15915;SDS011;8057;47.830;-3.870;2023-10-09T12:52:18;4.13;;;3.10;;
15915;SDS011;8057;47.830;-3.870;2023-10-09T12:56:27;4.43;;;3.57;;
15915;SDS011;8057;47.830;-3.870;2023-10-09T13:00:44;4.33;;;3.30;;
15915;SDS011;8057;47.830;-3.870;2023-10-09T13:04:56;3.83;;;3.37;;
15915;SDS011;8057;47.830;-3.870;2023-10-09T13:09:09;4.00;;;3.40;;
15915;SDS011;8057;47.830;-3.870;2023-10-09T13:13:19;4.70;;;3.37;;
15915;SDS011;8057;47.830;-3.870;2023-10-09T13:17:29;5.33;;;4.10;;
15915;SDS011;8057;47.830;-3.870;2023-10-09T13:21:41;5.47;;;3.53;;
15915;SDS011;8057;47.830;-3.870;2023-10-09T13:25:52;6.67;;;3.90;;
15915;SDS011;8057;47.830;-3.870;2023-10-09T13:30:01;5.37;;;3.57;;
15915;SDS011;8057;47.830;-3.870;2023-10-09T13:34:12;6.13;;;4.77;;
15915;SDS011;8057;47.830;-3.870;2023-10-09T13:38:23;4.27;;;3.63;;
15915;SDS011;8057;47.830;-3.870;2023-10-09T13:42:34;6.10;;;5.10;;
15915;SDS011;8057;47.830;-3.870;2023-10-09T13:46:44;6.27;;;4.50;;
15915;SDS011;8057;47.830;-3.870;2023-10-09T13:50:57;7.03;;;4.50;;
15915;SDS011;8057;47.830;-3.870;2023-10-09T13:55:09;7.27;;;4.67;;
15915;SDS011;8057;47.830;-3.870;2023-10-09T13:59:24;6.20;;;5.03;;
15915;SDS011;8057;47.830;-3.870;2023-10-09T14:03:33;7.17;;;5.27;;
15915;SDS011;8057;47.830;-3.870;2023-10-09T14:07:45;8.30;;;6.40;;
15915;SDS011;8057;47.830;-3.870;2023-10-09T14:11:55;11.20;;;6.40;;
15915;SDS011;8057;47.830;-3.870;2023-10-09T14:16:14;7.60;;;5.70;;
15915;SDS011;8057;47.830;-3.870;2023-10-09T14:20:34;6.20;;;5.17;;
15915;SDS011;8057;47.830;-3.870;2023-10-09T14:24:45;10.47;;;6.50;;
15915;SDS011;8057;47.830;-3.870;2023-10-09T14:28:56;6.80;;;5.57;;
15915;SDS011;8057;47.830;-3.870;2023-10-09T14:33:06;7.60;;;6.17;;
15915;SDS011;8057;47.830;-3.870;2023-10-09T14:37:19;7.47;;;6.70;;
15915;SDS011;8057;47.830;-3.870;2023-10-09T14:41:30;8.63;;;7.00;;
15915;SDS011;8057;47.830;-3.870;2023-10-09T14:45:40;7.73;;;6.70;;
15915;SDS011;8057;47.830;-3.870;2023-10-09T14:49:51;5.93;;;5.43;;
15915;SDS011;8057;47.830;-3.870;2023-10-09T14:54:03;6.00;;;5.40;;
15915;SDS011;8057;47.830;-3.870;2023-10-09T14:58:14;5.57;;;4.80;;
15915;SDS011;8057;47.830;-3.870;2023-10-09T15:02:24;7.50;;;6.70;;
15915;SDS011;8057;47.830;-3.870;2023-10-09T15:06:35;7.67;;;6.23;;
15915;SDS011;8057;47.830;-3.870;2023-10-09T15:10:45;7.90;;;6.30;;
15915;SDS011;8057;47.830;-3.870;2023-10-09T15:14:55;7.83;;;6.10;;
15915;SDS011;8057;47.830;-3.870;2023-10-09T15:19:04;7.87;;;6.70;;
15915;SDS011;8057;47.830;-3.870;2023-10-09T15:23:18;7.17;;;6.13;;
15915;SDS011;8057;47.830;-3.870;2023-10-09T15:27:27;7.10;;;5.70;;
15915;SDS011;8057;47.830;-3.870;2023-10-09T15:31:37;8.23;;;6.10;;
15915;SDS011;8057;47.830;-3.870;2023-10-09T15:35:47;7.77;;;6.00;;
15915;SDS011;8057;47.830;-3.870;2023-10-09T15:39:58;10.13;;;7.07;;
15915;SDS011;8057;47.830;-3.870;2023-10-09T15:44:11;7.53;;;6.73;;
15915;SDS011;8057;47.830;-3.870;2023-10-09T15:48:21;11.73;;;8.20;;
15915;SDS011;8057;47.830;-3.870;2023-10-09T15:52:30;9.10;;;7.30;;
15915;SDS011;8057;47.830;-3.870;2023-10-09T15:56:41;8.57;;;6.67;;
15915;SDS011;8057;47.830;-3.870;2023-10-09T16:01:01;7.30;;;6.27;;
15915;SDS011;8057;47.830;-3.870;2023-10-09T16:05:14;7.90;;;6.23;;
15915;SDS011;8057;47.830;-3.870;2023-10-09T16:09:24;6.47;;;5.43;;
15915;SDS011;8057;47.830;-3.870;2023-10-09T16:13:38;6.10;;;5.27;;
15915;SDS011;8057;47.830;-3.870;2023-10-09T16:17:47;6.17;;;5.43;;
15915;SDS011;8057;47.830;-3.870;2023-10-09T16:22:05;5.83;;;4.67;;
15915;SDS011;8057;47.830;-3.870;2023-10-09T16:26:20;5.93;;;5.03;;
15915;SDS011;8057;47.830;-3.870;2023-10-09T16:30:33;4.97;;;4.47;;
15915;SDS011;8057;47.830;-3.870;2023-10-09T16:34:43;5.93;;;4.23;;
15915;SDS011;8057;47.830;-3.870;2023-10-09T16:38:52;4.50;;;4.10;;
15915;SDS011;8057;47.830;-3.870;2023-10-09T16:43:03;4.93;;;4.13;;
15915;SDS011;8057;47.830;-3.870;2023-10-09T16:47:15;5.90;;;4.73;;
15915;SDS011;8057;47.830;-3.870;2023-10-09T16:51:25;8.63;;;5.23;;
15915;SDS011;8057;47.830;-3.870;2023-10-09T16:55:34;6.23;;;5.10;;
15915;SDS011;8057;47.830;-3.870;2023-10-09T16:59:48;5.23;;;4.60;;
15915;SDS011;8057;47.830;-3.870;2023-10-09T17:04:04;7.23;;;5.73;;
15915;SDS011;8057;47.830;-3.870;2023-10-09T17:08:20;5.63;;;5.07;;
15915;SDS011;8057;47.830;-3.870;2023-10-09T17:12:31;5.87;;;4.70;;
15915;SDS011;8057;47.830;-3.870;2023-10-09T17:16:41;6.13;;;4.70;;
15915;SDS011;8057;47.830;-3.870;2023-10-09T17:20:58;5.90;;;5.03;;
15915;SDS011;8057;47.830;-3.870;2023-10-09T17:25:16;6.50;;;5.90;;
15915;SDS011;8057;47.830;-3.870;2023-10-09T17:29:26;10.13;;;5.93;;
15915;SDS011;8057;47.830;-3.870;2023-10-09T17:33:39;9.63;;;6.80;;
15915;SDS011;8057;47.830;-3.870;2023-10-09T17:37:55;6.83;;;6.13;;
15915;SDS011;8057;47.830;-3.870;2023-10-09T17:42:10;6.57;;;5.83;;
15915;SDS011;8057;47.830;-3.870;2023-10-09T17:46:24;9.27;;;7.30;;
15915;SDS011;8057;47.830;-3.870;2023-10-09T17:50:42;8.53;;;6.33;;
15915;SDS011;8057;47.830;-3.870;2023-10-09T17:55:02;7.90;;;5.80;;
15915;SDS011;8057;47.830;-3.870;2023-10-09T17:59:16;5.97;;;5.47;;
15915;SDS011;8057;47.830;-3.870;2023-10-09T18:03:27;7.33;;;6.63;;
15915;SDS011;8057;47.830;-3.870;2023-10-09T18:07:40;6.20;;;5.60;;
15915;SDS011;8057;47.830;-3.870;2023-10-09T18:12:01;7.27;;;5.97;;
15915;SDS011;8057;47.830;-3.870;2023-10-09T18:16:21;5.23;;;4.77;;
15915;SDS011;8057;47.830;-3.870;2023-10-09T18:20:40;6.50;;;5.60;;
15915;SDS011;8057;47.830;-3.870;2023-10-09T18:24:59;6.20;;;5.60;;
15915;SDS011;8057;47.830;-3.870;2023-10-09T18:29:23;5.73;;;5.07;;
15915;SDS011;8057;47.830;-3.870;2023-10-09T18:33:49;5.50;;;5.00;;
15915;SDS011;8057;47.830;-3.870;2023-10-09T18:38:11;6.13;;;5.10;;
15915;SDS011;8057;47.830;-3.870;2023-10-09T18:42:23;7.73;;;6.93;;
15915;SDS011;8057;47.830;-3.870;2023-10-09T18:46:42;6.27;;;5.67;;
15915;SDS011;8057;47.830;-3.870;2023-10-09T18:50:58;7.00;;;6.30;;
15915;SDS011;8057;47.830;-3.870;2023-10-09T18:55:14;8.33;;;5.90;;
15915;SDS011;8057;47.830;-3.870;2023-10-09T18:59:31;13.30;;;6.40;;
15915;SDS011;8057;47.830;-3.870;2023-10-09T19:03:48;9.90;;;6.20;;
15915;SDS011;8057;47.830;-3.870;2023-10-09T19:08:05;9.33;;;6.23;;
15915;SDS011;8057;47.830;-3.870;2023-10-09T19:12:19;7.43;;;6.23;;
15915;SDS011;8057;47.830;-3.870;2023-10-09T19:16:33;10.43;;;7.03;;
15915;SDS011;8057;47.830;-3.870;2023-10-09T19:20:46;7.90;;;7.03;;
15915;SDS011;8057;47.830;-3.870;2023-10-09T19:24:57;8.50;;;7.40;;
15915;SDS011;8057;47.830;-3.870;2023-10-09T19:29:08;10.40;;;7.30;;
15915;SDS011;8057;47.830;-3.870;2023-10-09T19:33:23;7.63;;;6.90;;
15915;SDS011;8057;47.830;-3.870;2023-10-09T19:37:39;6.50;;;5.90;;
15915;SDS011;8057;47.830;-3.870;2023-10-09T19:41:53;7.90;;;6.80;;
15915;SDS011;8057;47.830;-3.870;2023-10-09T19:46:04;7.80;;;6.67;;
15915;SDS011;8057;47.830;-3.870;2023-10-09T19:50:15;6.37;;;5.67;;
15915;SDS011;8057;47.830;-3.870;2023-10-09T19:54:30;6.37;;;5.80;;
15915;SDS011;8057;47.830;-3.870;2023-10-09T19:58:47;7.60;;;6.30;;
15915;SDS011;8057;47.830;-3.870;2023-10-09T20:03:01;10.47;;;7.30;;
15915;SDS011;8057;47.830;-3.870;2023-10-09T20:07:15;8.17;;;6.20;;
15915;SDS011;8057;47.830;-3.870;2023-10-09T20:11:30;7.13;;;6.00;;
15915;SDS011;8057;47.830;-3.870;2023-10-09T20:15:43;7.90;;;7.07;;
15915;SDS011;8057;47.830;-3.870;2023-10-09T20:19:56;7.73;;;6.27;;
15915;SDS011;8057;47.830;-3.870;2023-10-09T20:24:13;7.67;;;6.63;;
15915;SDS011;8057;47.830;-3.870;2023-10-09T20:28:28;7.40;;;6.43;;
15915;SDS011;8057;47.830;-3.870;2023-10-09T20:32:44;7.43;;;6.53;;
15915;SDS011;8057;47.830;-3.870;2023-10-09T20:36:57;8.67;;;7.37;;
15915;SDS011;8057;47.830;-3.870;2023-10-09T20:41:11;12.00;;;8.37;;
15915;SDS011;8057;47.830;-3.870;2023-10-09T20:45:27;9.20;;;8.07;;
15915;SDS011;8057;47.830;-3.870;2023-10-09T20:49:43;11.23;;;9.33;;
15915;SDS011;8057;47.830;-3.870;2023-10-09T20:54:01;10.33;;;9.07;;
15915;SDS011;8057;47.830;-3.870;2023-10-09T20:58:22;11.83;;;10.10;;
15915;SDS011;8057;47.830;-3.870;2023-10-09T21:02:39;10.90;;;9.60;;
15915;SDS011;8057;47.830;-3.870;2023-10-09T21:06:55;12.90;;;10.93;;
15915;SDS011;8057;47.830;-3.870;2023-10-09T21:11:10;14.17;;;12.73;;
15915;SDS011;8057;47.830;-3.870;2023-10-09T21:15:29;18.60;;;11.80;;
15915;SDS011;8057;47.830;-3.870;2023-10-09T21:19:49;14.97;;;11.07;;
15915;SDS011;8057;47.830;-3.870;2023-10-09T21:24:06;11.90;;;10.70;;
15915;SDS011;8057;47.830;-3.870;2023-10-09T21:28:23;12.20;;;10.83;;
15915;SDS011;8057;47.830;-3.870;2023-10-09T21:32:38;12.23;;;10.20;;
15915;SDS011;8057;47.830;-3.870;2023-10-09T21:36:58;12.43;;;9.20;;
15915;SDS011;8057;47.830;-3.870;2023-10-09T21:41:19;9.23;;;8.27;;
15915;SDS011;8057;47.830;-3.870;2023-10-09T21:45:38;9.27;;;8.13;;
15915;SDS011;8057;47.830;-3.870;2023-10-09T21:49:55;10.37;;;8.13;;
15915;SDS011;8057;47.830;-3.870;2023-10-09T21:54:22;12.00;;;10.00;;
15915;SDS011;8057;47.830;-3.870;2023-10-09T21:58:44;8.33;;;7.53;;
15915;SDS011;8057;47.830;-3.870;2023-10-09T22:03:02;8.93;;;8.03;;
15915;SDS011;8057;47.830;-3.870;2023-10-09T22:07:15;9.53;;;8.47;;
15915;SDS011;8057;47.830;-3.870;2023-10-09T22:11:40;8.70;;;6.90;;
15915;SDS011;8057;47.830;-3.870;2023-10-09T22:15:55;11.10;;;8.03;;
15915;SDS011;8057;47.830;-3.870;2023-10-09T22:20:09;8.27;;;6.83;;
15915;SDS011;8057;47.830;-3.870;2023-10-09T22:24:29;7.90;;;7.20;;
15915;SDS011;8057;47.830;-3.870;2023-10-09T22:28:49;10.27;;;7.77;;
15915;SDS011;8057;47.830;-3.870;2023-10-09T22:32:59;8.37;;;7.43;;
15915;SDS011;8057;47.830;-3.870;2023-10-09T22:37:15;8.43;;;7.60;;
15915;SDS011;8057;47.830;-3.870;2023-10-09T22:41:41;7.53;;;6.73;;
15915;SDS011;8057;47.830;-3.870;2023-10-09T22:46:01;10.33;;;8.83;;
